Time;durP1;ratioP1;P1;durP2;ratioP2;P2;SDS_P1;SDS_P2;PMS_P1;PMS_P2;Temp;Humidity;BMP_temperature;BMP_pressure;BME280_temperature;BME280_humidity;BME280_pressure;Samples;Min_cycle;Max_cycle;Signal;HPM_P1;HPM_P2
2021/10/09 00:02:59;;;;;;;8.40;3.90;;;;;;;4.15;64.75;100152.40;235697;1193;22559;-74
2021/10/09 00:08:17;;;;;;;5.70;3.00;;;;;;;4.15;64.96;100155.39;235311;1201;22415;-72
2021/10/09 00:13:33;;;;;;;11.70;3.40;;;;;;;4.16;65.37;100154.85;235345;1201;22440;-75
2021/10/09 00:18:47;;;;;;;4.50;2.60;;;;;;;4.14;65.31;100149.04;235478;1201;24049;-75
2021/10/09 00:23:52;;;;;;;8.30;3.20;;;;;;;4.12;65.44;100147.41;235378;1200;22590;-73
2021/10/09 00:28:55;;;;;;;5.40;3.20;;;;;;;4.10;65.39;100149.42;235164;1193;24068;-73
2021/10/09 00:34:00;;;;;;;5.40;2.40;;;;;;;4.08;65.63;100152.69;235317;1200;22451;-77
2021/10/09 00:39:20;;;;;;;11.30;3.70;;;;;;;4.01;65.73;100154.07;234878;1197;24054;-73
2021/10/09 00:44:22;;;;;;;6.50;3.10;;;;;;;3.97;66.08;100154.73;235088;1195;24021;-73
2021/10/09 00:49:25;;;;;;;9.40;3.60;;;;;;;3.94;66.00;100150.00;235075;1201;22874;-75
2021/10/09 00:54:28;;;;;;;8.50;3.30;;;;;;;3.88;66.09;100149.55;235566;1195;26098;-73
2021/10/09 00:59:31;;;;;;;6.50;3.60;;;;;;;3.85;66.42;100147.24;236128;1192;24034;-74
2021/10/09 01:04:35;;;;;;;7.60;3.60;;;;;;;3.79;66.51;100151.13;235916;1193;22476;-73
2021/10/09 01:09:38;;;;;;;9.10;3.60;;;;;;;3.77;66.69;100152.20;235603;1197;24019;-74
2021/10/09 01:14:43;;;;;;;8.60;4.30;;;;;;;3.75;66.80;100146.79;235779;1200;26757;-73
2021/10/09 01:19:46;;;;;;;10.00;4.30;;;;;;;3.70;66.91;100146.19;235832;1193;24075;-75
2021/10/09 01:24:50;;;;;;;8.50;4.20;;;;;;;3.62;67.14;100145.89;235629;1194;24055;-75
2021/10/09 01:29:53;;;;;;;9.20;4.90;;;;;;;3.48;67.14;100143.31;235443;1196;22453;-73
2021/10/09 01:34:56;;;;;;;9.30;5.00;;;;;;;3.40;67.48;100143.13;235514;1200;22441;-73
2021/10/09 01:39:59;;;;;;;10.20;4.10;;;;;;;3.38;67.59;100141.84;235946;1193;24856;-75
2021/10/09 01:45:10;;;;;;;8.50;4.10;;;;;;;3.38;67.80;100132.01;235496;1200;25324;-75
2021/10/09 01:50:15;;;;;;;6.20;3.10;;;;;;;3.36;68.05;100125.38;235192;1200;24566;-73
2021/10/09 01:55:19;;;;;;;8.00;4.20;;;;;;;3.31;68.16;100129.22;235604;1199;25186;-73
2021/10/09 02:00:23;;;;;;;9.20;4.60;;;;;;;3.23;68.11;100131.35;236476;1200;25279;-72
2021/10/09 02:05:27;;;;;;;10.40;4.50;;;;;;;3.16;68.33;100134.21;235527;1199;22448;-74
2021/10/09 02:10:31;;;;;;;5.60;3.30;;;;;;;3.07;68.55;100132.77;235648;1200;22531;-73
2021/10/09 02:26:39;;;;;;;9.00;5.30;;;;;;;2.78;69.26;100128.90;236038;1187;24034;-75
2021/10/09 02:31:43;;;;;;;12.20;6.00;;;;;;;2.70;69.36;100130.69;235542;1200;22448;-73
2021/10/09 02:36:47;;;;;;;14.30;6.10;;;;;;;2.70;69.71;100140.70;235616;1200;22444;-75
2021/10/09 02:41:52;;;;;;;13.90;6.10;;;;;;;2.71;69.92;100145.43;235458;1196;23986;-73
2021/10/09 02:46:57;;;;;;;8.70;4.80;;;;;;;2.71;70.12;100141.93;235364;1200;25428;-73
2021/10/09 02:52:00;;;;;;;16.00;7.10;;;;;;;2.69;70.09;100138.67;235731;1194;24112;-75
2021/10/09 02:57:04;;;;;;;12.90;5.70;;;;;;;2.71;70.22;100137.66;236011;1199;22447;-76
2021/10/09 03:02:06;;;;;;;9.20;5.30;;;;;;;2.75;70.25;100130.77;235828;1199;22415;-75
2021/10/09 03:07:09;;;;;;;6.00;4.30;;;;;;;2.80;70.32;100136.40;235672;1200;22442;-75
2021/10/09 03:12:12;;;;;;;14.40;6.70;;;;;;;2.82;70.36;100134.89;235401;1200;22465;-73
2021/10/09 03:17:16;;;;;;;10.00;5.30;;;;;;;2.82;70.29;100137.53;235429;1200;24023;-74
2021/10/09 03:22:19;;;;;;;15.00;6.20;;;;;;;2.82;70.51;100140.46;235402;1200;22449;-73
2021/10/09 03:27:21;;;;;;;11.00;5.60;;;;;;;2.81;70.47;100141.00;235456;1200;22443;-73
2021/10/09 03:32:25;;;;;;;9.40;5.80;;;;;;;2.77;70.52;100141.68;235504;1200;25383;-74
2021/10/09 03:37:28;;;;;;;15.00;6.20;;;;;;;2.71;70.54;100148.81;235542;1200;25053;-75
2021/10/09 03:43:25;;;;;;;11.10;5.50;;;;;;;2.65;70.69;100148.19;235696;1198;24077;-73
2021/10/09 03:53:41;;;;;;;12.90;5.40;;;;;;;2.63;71.06;100148.23;235831;1194;25081;-74
2021/10/09 03:58:44;;;;;;;12.00;5.90;;;;;;;2.60;71.15;100149.52;235541;1200;25209;-74
2021/10/09 04:03:48;;;;;;;17.20;6.80;;;;;;;2.58;71.14;100157.95;235966;1200;24119;-75
2021/10/09 04:08:51;;;;;;;10.40;5.20;;;;;;;2.56;71.26;100150.91;235484;1200;23991;-75
2021/10/09 04:13:55;;;;;;;15.20;7.10;;;;;;;2.52;71.28;100154.25;235346;1200;24519;-75
2021/10/09 04:19:00;;;;;;;13.90;6.40;;;;;;;2.46;71.45;100153.29;235568;1193;24517;-75
2021/10/09 04:24:04;;;;;;;9.40;6.00;;;;;;;2.38;71.56;100150.71;235806;1177;24058;-72
2021/10/09 04:29:12;;;;;;;13.30;5.70;;;;;;;2.33;71.61;100148.88;235249;1200;24105;-75
2021/10/09 04:34:15;;;;;;;12.00;5.60;;;;;;;2.31;71.86;100152.60;235300;1194;22419;-75
2021/10/09 04:39:20;;;;;;;18.00;6.50;;;;;;;2.29;72.02;100149.69;235912;1199;24116;-75
2021/10/09 04:44:24;;;;;;;13.20;6.10;;;;;;;2.25;71.98;100155.89;235526;1200;24074;-75
2021/10/09 04:49:26;;;;;;;12.00;5.40;;;;;;;2.20;72.26;100156.79;235632;1200;24207;-75
2021/10/09 04:54:47;;;;;;;12.30;5.70;;;;;;;2.18;72.30;100167.18;235696;1200;25309;-76
2021/10/09 04:59:54;;;;;;;;;;;;;;;2.16;72.46;100171.16;235767;1199;22412;-74
2021/10/09 05:04:58;;;;;;;10.00;5.90;;;;;;;2.16;72.50;100178.81;235640;1193;24214;-74
2021/10/09 05:10:15;;;;;;;11.10;5.50;;;;;;;2.19;72.62;100178.13;235351;1187;24119;-74
2021/10/09 05:15:47;;;;;;;12.60;6.40;;;;;;;2.25;72.59;100182.45;235300;1198;25259;-74
2021/10/09 05:20:53;;;;;;;12.10;5.40;;;;;;;2.28;72.52;100183.04;235469;1200;22439;-76
2021/10/09 05:25:58;;;;;;;16.80;6.10;;;;;;;2.31;72.49;100187.52;235472;1199;22450;-73
2021/10/09 05:31:09;;;;;;;14.20;5.70;;;;;;;2.37;72.60;100185.95;235627;1200;22467;-73
2021/10/09 05:36:15;;;;;;;12.40;4.90;;;;;;;2.46;72.55;100189.88;236015;1200;25727;-73
2021/10/09 05:41:22;;;;;;;15.70;5.90;;;;;;;2.50;72.56;100187.69;235751;1200;23972;-73
2021/10/09 05:46:34;;;;;;;20.00;8.60;;;;;;;2.59;72.53;100191.01;235740;1193;24554;-73
2021/10/09 05:51:53;;;;;;;15.70;7.20;;;;;;;2.67;72.50;100204.65;235412;1200;22692;-74
2021/10/09 05:57:07;;;;;;;14.70;6.60;;;;;;;2.77;72.54;100208.13;235619;1200;24047;-75
2021/10/09 07:01:10;;;;;;;10.40;4.20;;;;;;;4.92;70.13;100250.89;235909;1193;24091;-75
2021/10/09 07:06:16;;;;;;;13.30;5.80;;;;;;;5.09;69.44;100255.19;236096;1199;22492;-73
2021/10/09 07:11:30;;;;;;;13.10;5.50;;;;;;;5.29;69.01;100254.71;236073;1195;22914;-74
2021/10/09 07:16:35;;;;;;;9.10;4.40;;;;;;;5.50;69.29;100255.27;236023;1193;22451;-75
2021/10/09 07:21:39;;;;;;;9.20;4.80;;;;;;;5.75;68.91;100255.08;235850;1193;22460;-74
2021/10/09 07:27:02;;;;;;;8.70;5.30;;;;;;;5.97;68.41;100261.90;236003;1192;24033;-76
2021/10/09 07:32:05;;;;;;;13.40;6.70;;;;;;;6.18;67.92;100264.64;236124;1199;25345;-73
2021/10/09 07:37:08;;;;;;;9.00;5.40;;;;;;;6.37;67.16;100262.40;236245;1199;22632;-75
2021/10/09 07:42:11;;;;;;;12.30;5.60;;;;;;;6.56;66.70;100265.43;236174;1199;24892;-75
2021/10/09 07:47:14;;;;;;;12.00;5.40;;;;;;;6.75;66.17;100269.06;235690;1199;25619;-75
2021/10/09 07:52:17;;;;;;;8.80;4.50;;;;;;;7.02;66.24;100270.66;235569;1196;22496;-74
2021/10/09 07:57:19;;;;;;;9.20;5.00;;;;;;;7.23;65.56;100266.23;235363;1200;22446;-73
2021/10/09 08:02:21;;;;;;;9.10;4.90;;;;;;;7.43;64.87;100268.95;236218;1200;24034;-74
2021/10/09 08:07:24;;;;;;;10.40;4.60;;;;;;;7.65;64.43;100270.19;235848;1200;24814;-73
2021/10/09 08:12:26;;;;;;;9.70;5.10;;;;;;;7.83;64.05;100276.40;235847;1200;24125;-73
2021/10/09 08:17:30;;;;;;;7.30;4.30;;;;;;;8.06;63.63;100277.00;235680;1200;22424;-73
2021/10/09 08:22:36;;;;;;;8.80;4.30;;;;;;;8.26;62.86;100280.42;235641;1193;22445;-72
2021/10/09 08:28:02;;;;;;;6.40;3.80;;;;;;;8.48;62.68;100285.35;236037;1193;22429;-73
2021/10/09 08:43:45;;;;;;;7.10;3.20;;;;;;;8.78;59.05;100290.37;237066;1178;24018;-74
2021/10/09 08:48:51;;;;;;;6.00;3.20;;;;;;;8.81;58.51;100290.41;236628;1184;24092;-74
2021/10/09 08:54:03;;;;;;;9.40;4.10;;;;;;;8.88;58.53;100293.27;236688;1199;22457;-72
2021/10/09 09:41:48;;;;;;;3.60;2.60;;;;;;;9.98;54.41;100276.48;235468;1193;24131;-70
2021/10/09 09:47:07;;;;;;;6.80;2.60;;;;;;;10.12;53.79;100272.16;235695;1200;22523;-73
2021/10/09 09:52:34;;;;;;;8.00;1.70;;;;;;;10.23;53.06;100264.96;235790;1198;25114;-73
2021/10/09 09:57:38;;;;;;;5.70;2.50;;;;;;;10.31;53.09;100269.04;235747;1199;24081;-73
2021/10/09 10:02:48;;;;;;;3.30;2.40;;;;;;;10.42;52.81;100266.98;235712;1200;22452;-73
2021/10/09 10:07:52;;;;;;;;;;;;;;;10.56;52.14;100267.52;236040;1199;22562;-71
2021/10/09 10:12:58;;;;;;;6.70;2.30;;;;;;;10.61;51.08;100265.73;235726;1199;22534;-72
2021/10/09 10:18:01;;;;;;;3.80;1.70;;;;;;;10.68;50.77;100263.98;235703;1200;22568;-74
2021/10/09 10:23:04;;;;;;;2.60;1.60;;;;;;;10.78;50.32;100259.70;236106;1197;22887;-74
2021/10/09 10:28:14;;;;;;;6.70;2.30;;;;;;;10.89;50.22;100257.83;236300;1192;24050;-75
2021/10/09 10:33:29;;;;;;;4.40;2.00;;;;;;;11.00;49.16;100256.95;235983;1192;25701;-73
2021/10/09 10:38:44;;;;;;;4.20;1.90;;;;;;;11.03;48.75;100256.02;235849;1196;22438;-75
2021/10/09 10:43:54;;;;;;;5.90;2.20;;;;;;;11.15;49.16;100259.93;235912;1193;22426;-72
2021/10/09 10:59:46;;;;;;;6.80;2.10;;;;;;;11.15;47.50;100259.28;236312;1177;22456;-73
2021/10/09 11:05:05;;;;;;;3.60;1.50;;;;;;;11.22;46.94;100254.66;236437;1192;24381;-73
2021/10/09 11:10:17;;;;;;;7.30;2.20;;;;;;;11.29;47.85;100252.27;237344;1199;24082;-72
2021/10/09 11:15:26;;;;;;;6.20;2.60;;;;;;;11.37;47.23;100251.35;235998;1199;22979;-71
2021/10/09 11:20:33;;;;;;;5.20;2.40;;;;;;;11.41;46.73;100245.42;236037;1199;24161;-71
2021/10/09 11:25:45;;;;;;;4.00;2.10;;;;;;;11.44;46.62;100245.92;235525;1200;22507;-72
2021/10/09 11:30:47;;;;;;;3.10;1.80;;;;;;;11.46;46.61;100241.60;235913;1199;24078;-72
2021/10/09 11:35:50;;;;;;;4.30;2.00;;;;;;;11.47;46.25;100238.27;235838;1198;22429;-73
2021/10/09 11:40:56;;;;;;;3.50;1.90;;;;;;;11.54;45.93;100243.31;236239;1199;22558;-73
2021/10/09 11:46:14;;;;;;;4.30;2.10;;;;;;;11.53;45.21;100236.10;236274;1199;22470;-72
2021/10/09 11:56:44;;;;;;;2.90;2.10;;;;;;;11.69;44.69;100231.65;236275;1199;22450;-74
2021/10/09 12:01:47;;;;;;;4.10;1.90;;;;;;;11.80;44.46;100227.23;236351;1193;22477;-73
2021/10/09 12:06:53;;;;;;;3.70;2.40;;;;;;;11.91;44.39;100227.53;236274;1197;22419;-72
2021/10/09 12:12:10;;;;;;;4.50;2.10;;;;;;;12.01;44.74;100219.80;236362;1193;23067;-73
2021/10/09 12:17:14;;;;;;;2.90;1.70;;;;;;;12.06;44.12;100216.54;236166;1199;24073;-73
2021/10/09 12:22:16;;;;;;;3.20;1.60;;;;;;;12.06;43.74;100215.96;236432;1198;22466;-72
2021/10/09 12:27:33;;;;;;;4.90;2.60;;;;;;;12.06;42.85;100210.20;236312;1192;24053;-73
2021/10/09 12:32:50;;;;;;;5.20;3.00;;;;;;;11.99;41.82;100208.46;235655;1200;22456;-71
2021/10/09 12:37:53;;;;;;;5.20;3.40;;;;;;;11.92;42.78;100210.44;235612;1199;22445;-73
2021/10/09 12:42:58;;;;;;;3.60;2.60;;;;;;;11.91;43.15;100203.40;235467;1200;25167;-73
2021/10/09 12:48:01;;;;;;;4.20;2.80;;;;;;;11.94;43.20;100203.70;235741;1200;24112;-71
2021/10/09 12:53:05;;;;;;;6.10;2.70;;;;;;;11.87;41.26;100199.20;235696;1193;23817;-72
2021/10/09 12:58:09;;;;;;;4.20;2.50;;;;;;;11.77;41.09;100198.08;235889;1192;22427;-74
2021/10/09 13:03:12;;;;;;;3.40;2.90;;;;;;;11.70;40.90;100192.14;235762;1193;24050;-72
2021/10/09 13:08:14;;;;;;;4.10;2.60;;;;;;;11.67;41.40;100188.04;236124;1185;24102;-73
2021/10/09 13:13:17;;;;;;;5.40;3.10;;;;;;;11.67;42.04;100186.59;236083;1198;24081;-73
2021/10/09 13:18:20;;;;;;;5.90;3.80;;;;;;;11.71;42.19;100184.02;236240;1199;26378;-72
2021/10/09 13:23:31;;;;;;;11.00;3.20;;;;;;;11.75;41.58;100176.76;236166;1192;22475;-73
2021/10/09 13:28:48;;;;;;;6.40;3.20;;;;;;;11.71;41.57;100170.67;235664;1177;24508;-73
2021/10/09 13:33:52;;;;;;;6.70;3.90;;;;;;;11.68;41.70;100163.03;235625;1193;22459;-71
2021/10/09 13:38:54;;;;;;;7.60;3.60;;;;;;;11.70;42.50;100153.80;235870;1193;24054;-71
2021/10/09 13:43:57;;;;;;;5.50;3.60;;;;;;;11.72;42.40;100153.76;235734;1200;22503;-73
2021/10/09 13:48:59;;;;;;;6.30;3.80;;;;;;;11.73;42.75;100153.29;235695;1200;22472;-73
2021/10/09 13:54:02;;;;;;;5.70;3.80;;;;;;;11.72;42.68;100147.79;235624;1200;22466;-72
2021/10/09 13:59:05;;;;;;;7.30;4.50;;;;;;;11.67;42.39;100153.73;235718;1200;24223;-72
2021/10/09 14:04:18;;;;;;;;;;;;;;;11.65;43.15;100154.86;235902;1198;24190;-72
2021/10/09 14:09:36;;;;;;;7.00;3.70;;;;;;;11.61;42.90;100155.48;235889;1193;22418;-71
2021/10/09 14:14:40;;;;;;;9.20;3.40;;;;;;;11.53;42.78;100152.81;235861;1200;24590;-71
2021/10/09 14:19:56;;;;;;;5.80;3.80;;;;;;;11.43;43.45;100153.08;235899;1193;24081;-72
2021/10/09 14:25:20;;;;;;;6.80;4.10;;;;;;;11.39;43.70;100150.76;236049;1199;24150;-72
2021/10/09 14:30:23;;;;;;;6.30;4.00;;;;;;;11.30;43.52;100152.04;235936;1200;22431;-73
2021/10/09 14:35:25;;;;;;;7.20;4.20;;;;;;;11.20;43.77;100150.91;235584;1200;24099;-73
2021/10/09 14:40:28;;;;;;;8.70;4.40;;;;;;;11.10;44.27;100157.17;235780;1177;24046;-73
2021/10/09 14:45:31;;;;;;;10.90;4.70;;;;;;;11.03;44.97;100149.98;235906;1200;24086;-73
2021/10/09 15:22:08;;;;;;;10.20;6.90;;;;;;;10.34;47.30;100154.96;235741;1199;22485;-71
2021/10/09 15:27:11;;;;;;;9.60;5.70;;;;;;;10.19;47.63;100151.36;235932;1199;22419;-73
2021/10/09 15:32:13;;;;;;;9.70;5.40;;;;;;;10.01;48.26;100152.20;235766;1200;24081;-72
2021/10/09 15:37:17;;;;;;;11.00;5.60;;;;;;;9.86;48.54;100153.35;235679;1200;22500;-74
2021/10/09 15:42:27;;;;;;;11.50;6.10;;;;;;;9.73;48.63;100156.83;235526;1200;25169;-73
2021/10/09 15:47:38;;;;;;;6.70;4.90;;;;;;;9.61;48.58;100157.33;235200;1200;25324;-71
2021/10/09 15:52:41;;;;;;;7.30;4.90;;;;;;;9.43;48.63;100160.30;235066;1201;22473;-73
2021/10/09 15:57:43;;;;;;;9.10;4.70;;;;;;;9.24;48.81;100161.54;235516;1193;24084;-71
2021/10/09 16:02:52;;;;;;;21.90;12.70;;;;;;;9.03;49.28;100167.37;235321;1199;24152;-71
2021/10/09 16:07:54;;;;;;;9.60;6.50;;;;;;;8.83;49.54;100165.13;235850;1199;22460;-74
2021/10/09 16:12:57;;;;;;;9.40;5.30;;;;;;;8.63;49.78;100165.59;236009;1199;24040;-74
2021/10/09 16:18:00;;;;;;;9.10;5.30;;;;;;;8.44;50.03;100166.85;236161;1192;24054;-74
2021/10/09 16:23:04;;;;;;;22.80;11.60;;;;;;;8.27;50.30;100170.21;235668;1198;22551;-72
2021/10/09 16:28:08;;;;;;;10.80;6.50;;;;;;;8.07;50.79;100167.49;235438;1200;22566;-72
2021/10/09 16:33:24;;;;;;;11.60;6.50;;;;;;;7.89;50.86;100169.54;235758;1200;24050;-74
2021/10/09 16:38:41;;;;;;;11.60;6.30;;;;;;;7.71;51.38;100167.90;235606;1193;24009;-71
2021/10/09 16:43:44;;;;;;;12.30;6.00;;;;;;;7.56;51.44;100168.70;235579;1200;24027;-73
2021/10/09 16:48:46;;;;;;;11.40;6.50;;;;;;;7.42;51.83;100170.44;235611;1193;22461;-74
2021/10/09 16:53:48;;;;;;;15.40;7.40;;;;;;;7.28;52.28;100176.84;235373;1200;22476;-72
2021/10/09 16:58:51;;;;;;;16.60;8.70;;;;;;;7.15;52.38;100180.17;235614;1200;25139;-73
2021/10/09 17:03:53;;;;;;;22.60;10.20;;;;;;;7.02;52.90;100183.47;235323;1200;25219;-74
2021/10/09 17:08:56;;;;;;;17.20;10.10;;;;;;;6.88;53.18;100185.86;235791;1198;22567;-72
2021/10/09 17:14:00;;;;;;;26.70;13.00;;;;;;;6.72;53.81;100180.20;235703;1200;26151;-72
2021/10/09 17:19:04;;;;;;;20.30;11.50;;;;;;;6.58;54.36;100182.17;235822;1200;24203;-72
2021/10/09 17:24:12;;;;;;;21.00;11.90;;;;;;;6.43;54.56;100185.13;235630;1200;24057;-74
2021/10/09 17:29:14;;;;;;;22.30;13.00;;;;;;;6.34;54.48;100187.01;235703;1200;23686;-72
2021/10/09 17:34:21;;;;;;;20.30;10.90;;;;;;;6.29;54.57;100187.20;235657;1193;22587;-73
2021/10/09 17:39:24;;;;;;;19.10;10.40;;;;;;;6.27;54.78;100185.86;235281;1193;25376;-74
2021/10/09 17:44:26;;;;;;;18.90;10.00;;;;;;;6.24;55.09;100185.46;235685;1193;22493;-72
2021/10/09 17:49:28;;;;;;;22.60;11.20;;;;;;;6.20;55.10;100186.84;235609;1200;24061;-74
2021/10/09 17:54:31;;;;;;;22.30;12.60;;;;;;;6.17;55.45;100188.46;235671;1193;24061;-74
2021/10/09 17:59:46;;;;;;;30.60;14.50;;;;;;;6.19;55.56;100189.73;235625;1194;22439;-72
2021/10/09 18:05:06;;;;;;;24.70;12.40;;;;;;;6.21;55.97;100184.31;235664;1199;24059;-75
2021/10/09 18:10:13;;;;;;;23.90;12.60;;;;;;;6.21;56.16;100187.08;235901;1192;24077;-74
2021/10/09 18:15:16;;;;;;;19.00;10.80;;;;;;;6.19;56.19;100183.45;235624;1197;24111;-75
2021/10/09 18:20:19;;;;;;;19.50;10.60;;;;;;;6.17;55.96;100181.29;236027;1199;24068;-74
2021/10/09 18:25:21;;;;;;;19.40;10.40;;;;;;;6.15;56.39;100180.00;235518;1199;22522;-73
2021/10/09 18:30:24;;;;;;;22.20;11.60;;;;;;;6.12;56.54;100177.27;235444;1194;24094;-74
2021/10/09 18:35:27;;;;;;;23.10;12.50;;;;;;;6.06;56.84;100177.25;235547;1200;22423;-72
2021/10/09 18:40:30;;;;;;;22.40;11.10;;;;;;;5.99;57.11;100178.33;235322;1193;25215;-73
2021/10/09 18:45:33;;;;;;;21.20;11.80;;;;;;;5.90;57.25;100172.42;235057;1201;24869;-75
2021/10/09 18:50:36;;;;;;;24.30;12.30;;;;;;;5.84;57.64;100168.00;235225;1200;22561;-74
2021/10/09 18:55:40;;;;;;;22.70;12.50;;;;;;;5.82;58.10;100165.48;235456;1193;24038;-74
2021/10/09 19:00:43;;;;;;;22.80;12.30;;;;;;;5.81;58.26;100163.44;235158;1199;22531;-72
2021/10/09 19:05:46;;;;;;;22.40;12.70;;;;;;;5.80;58.26;100161.61;235482;1199;24777;-74
2021/10/09 19:10:49;;;;;;;22.10;12.50;;;;;;;5.78;58.55;100157.30;235701;1199;25221;-74
2021/10/09 19:15:53;;;;;;;22.80;12.60;;;;;;;5.76;58.57;100158.77;235616;1199;23831;-74
2021/10/09 19:20:56;;;;;;;27.80;13.60;;;;;;;5.67;58.61;100154.81;235801;1200;22486;-72
2021/10/09 19:25:59;;;;;;;31.10;14.00;;;;;;;5.59;59.14;100153.30;235747;1199;22452;-74
2021/10/09 19:31:02;;;;;;;26.80;14.00;;;;;;;5.56;58.98;100153.27;235448;1195;22442;-72
2021/10/09 19:36:11;;;;;;;31.30;17.00;;;;;;;5.50;59.22;100152.14;235659;1193;24064;-74
2021/10/09 19:41:14;;;;;;;29.60;15.60;;;;;;;5.47;59.73;100148.52;235394;1195;22477;-74
2021/10/09 19:46:16;;;;;;;26.20;14.10;;;;;;;5.47;59.69;100149.20;235782;1200;24038;-73
2021/10/09 19:51:29;;;;;;;24.70;12.40;;;;;;;5.43;59.69;100150.01;235378;1194;24076;-72
2021/10/09 19:56:31;;;;;;;25.30;12.10;;;;;;;5.34;59.65;100151.64;235743;1199;22448;-74
2021/10/09 20:01:34;;;;;;;21.20;12.30;;;;;;;5.21;59.72;100141.58;235362;1199;22505;-74
2021/10/09 20:06:37;;;;;;;23.30;12.60;;;;;;;5.12;60.07;100146.48;235765;1200;22431;-74
2021/10/09 20:12:30;;;;;;;25.70;13.00;;;;;;;5.07;60.13;100148.54;235590;1199;24085;-74
2021/10/09 20:17:09;;;;;;;24.70;13.70;;;;;;;5.07;60.27;100145.11;235898;1192;24055;-73
2021/10/09 20:22:18;;;;;;;28.00;14.00;;;;;;;5.06;60.37;100144.34;235613;1192;23824;-74
2021/10/09 20:27:20;;;;;;;30.40;14.60;;;;;;;5.02;60.53;100141.52;235721;1200;22558;-72
2021/10/09 20:32:23;;;;;;;26.10;15.60;;;;;;;4.93;60.57;100136.16;235307;1185;24108;-72
2021/10/09 20:37:26;;;;;;;29.50;15.50;;;;;;;4.82;60.79;100133.97;235665;1200;22969;-72
2021/10/09 20:42:29;;;;;;;29.50;13.90;;;;;;;4.70;60.93;100133.48;235602;1200;22473;-72
2021/10/09 20:47:31;;;;;;;30.40;15.00;;;;;;;4.59;61.18;100128.09;235384;1200;22448;-74
2021/10/09 20:52:34;;;;;;;29.00;14.90;;;;;;;4.53;61.55;100125.52;236011;1200;24242;-72
2021/10/09 20:57:36;;;;;;;27.80;15.00;;;;;;;4.49;61.72;100124.61;235685;1200;24040;-73
2021/10/09 21:02:39;;;;;;;27.80;14.00;;;;;;;4.43;61.99;100119.34;235512;1195;24030;-73
2021/10/09 21:07:46;;;;;;;25.80;13.80;;;;;;;4.37;61.83;100122.85;235368;1194;22478;-73
2021/10/09 21:23:25;;;;;;;23.40;13.20;;;;;;;4.18;62.32;100111.50;235723;1200;22529;-74
2021/10/09 21:28:27;;;;;;;26.00;14.30;;;;;;;4.17;62.46;100110.69;235779;1187;22489;-74
2021/10/09 21:33:30;;;;;;;27.70;14.30;;;;;;;4.13;63.01;100104.59;235766;1200;24030;-75
2021/10/09 21:38:32;;;;;;;27.00;15.70;;;;;;;4.06;62.99;100098.91;235284;1200;24151;-73
2021/10/09 21:43:35;;;;;;;28.10;15.10;;;;;;;3.94;63.02;100099.07;235554;1200;25290;-75
2021/10/09 21:48:38;;;;;;;27.80;15.70;;;;;;;3.85;63.13;100092.42;235519;1194;25021;-72
2021/10/09 21:53:44;;;;;;;29.90;14.90;;;;;;;3.75;63.35;100093.20;235635;1199;22429;-72
2021/10/09 21:59:07;;;;;;;31.60;15.10;;;;;;;3.70;63.53;100089.64;236142;1199;23068;-74
2021/10/09 22:36:24;;;;;;;26.30;13.10;;;;;;;3.55;64.37;100060.39;235448;1193;24084;-72
2021/10/09 22:41:27;;;;;;;24.50;13.40;;;;;;;3.55;64.65;100062.67;235361;1187;24096;-72
2021/10/09 22:46:30;;;;;;;28.60;14.20;;;;;;;3.52;64.69;100057.70;235230;1200;25157;-72
2021/10/09 22:51:33;;;;;;;26.40;14.20;;;;;;;3.41;64.68;100057.79;235218;1201;22454;-72
2021/10/09 22:56:35;;;;;;;31.00;15.50;;;;;;;3.29;64.89;100053.27;235876;1177;22513;-74
2021/10/09 23:01:39;;;;;;;29.60;15.10;;;;;;;3.20;65.15;100048.08;235836;1200;24074;-72
2021/10/09 23:06:41;;;;;;;25.00;14.10;;;;;;;3.15;65.47;100045.34;235680;1197;22445;-73
2021/10/09 23:11:44;;;;;;;25.70;13.80;;;;;;;3.12;65.65;100048.39;235382;1199;22430;-73
2021/10/09 23:16:47;;;;;;;25.00;13.50;;;;;;;3.10;65.63;100047.79;235837;1199;24270;-75
2021/10/09 23:21:56;;;;;;;28.30;14.90;;;;;;;3.06;65.61;100044.94;235692;1199;24089;-74
2021/10/09 23:27:06;;;;;;;26.80;14.30;;;;;;;3.02;65.69;100047.10;235314;1193;24122;-74
2021/10/09 23:32:09;;;;;;;28.10;14.50;;;;;;;2.99;65.72;100041.24;235450;1200;24267;-74
2021/10/09 23:37:11;;;;;;;25.70;14.60;;;;;;;2.96;65.92;100037.83;235290;1200;22429;-72
2021/10/09 23:42:14;;;;;;;26.60;14.50;;;;;;;2.98;66.09;100037.67;235622;1200;25429;-73
2021/10/09 23:47:20;;;;;;;28.70;15.00;;;;;;;2.98;66.18;100039.26;235215;1201;24049;-75
2021/10/09 23:52:23;;;;;;;35.50;16.50;;;;;;;2.96;66.11;100035.23;235432;1199;22627;-74
2021/10/09 23:57:25;;;;;;;35.50;17.20;;;;;;;2.91;66.13;100033.23;236183;1194;23012;-72
